Hunstanton, United Kingdom
Current Conditions -  °F | °C
As of 2:50 PM on Wednesday 22 Oct 2014 (Local Time) from EGYM Reporting Station
Broken Clouds Broken Clouds  
Wind Chill: 55°   Ceiling: 18000
Heat Index: 55°   Visibility: 6mi
Dew Point: 46°   Wind: 15mph
Humidity: 72%   Direction: 270°W
Pressure: 30.18"   Gusts: NA
Location:  52.94°N, 0.49°E
Report Text: EGYM 221350Z 27013KT 9999 FEW027 SCT095 BKN180 13/08 Q1022 BLU TEMPO SCT020 WHT
Loading
Personal Weather Stations






























Interactive Weather Map
Tropical Storm Tracking
New forecast layout! Learn more

10-Day Weather Forecast

Advertisements
Track Severe Weather on mobile